Holloman Air Force Base
KHMN : now visible

Airfield :











YOU CAN JOIN US ON...

 
LOGIN :

Register | Disclaimer

   EN    FR    IT 

 









Legend :    VFR   Marginal VFR   IFR   Intensive IFR   Very Intensive IFR
Visi :
Ceiling :
>= 8 km
>= 3000ft
5 to 8 km
1000 to 3000 ft
1500m to 5 km
500 to 1000 ft
800 to 1500m
200 to 500 ft
< 800m
< 200 ft
Symbols :   Thunderstorms  Fog  Heavy snow  Heavy precipitations  Wind > 20 kt






- Airport Elevation : 4093 ft


KHMN - Holloman Air Force Base

CURRENT METAR :
  • 301458Z AUTO 31006KT 10SM CLR 25/13 A3026 RMK AO2 SLP176 T02520134 52011 $

EXPIRED METARs :
  • 301358Z AUTO 34005KT 10SM CLR 21/13 A3025 RMK AO2 SLP174 T02100132 $
  • 301258Z AUTO 32006KT 10SM CLR 18/13 A3024 RMK AO2 SLP173 T01800129 $

TAF TAF KHMN
Valid from the 30 at 09:00 until the 31 at 15:00 UTC


300900Z 3009/3115 VRB06KT 9999 FEW180 QNH3020INS
BECMG 3017/3018 15012G18KT 9999 FEW140 SCT180 QNH3015INS TS OMTNS
BECMG 3104/3105 VRB06KT 9999 SCT140 SCT180 QNH3020INS TX35/3022Z TN19/3012Z
KZAB FIR / North America



MET'MAP, your aeronautical weather chart ! - Copyright ORBIFLY December 2007 - Disclaimer

ORBIFLY MET'MAP TEAM :

Programming & Development : Alexandra Zaïnal
Concept & original design : Baudouin d'Aumeries
Assistance for programming : Marc-Olivier Méhu
Technical & hardware support : Manuel Goepfert

Contact : metmap@orbifly.com




SOURCES & CREDITS :

   NOAA       Earth
Advisory